메인 페이지
METAR-TAF:

METAR-TAF

공항 :

아르한겔스크, 러시아

위도: 64-30N, 경도: 040-44E, 고도: 13m

현재 날씨관측

예보는 11분 전, 23:00시(UTC)에 발표되었습니다.
4kt남남동풍과 서북서풍을 오가는
온도 3°C
습도 81%
기압 1017 hPa
시정 10km 이상
고도 3300ft 상공 구름 조금

METAR: ULAA 232300Z 28002MPS 150V300 9999 FEW033 03/00 Q1017 R26/CLRD68 NOSIG RMK QFE761/1015

시각: 02:11 (23:11 UTC)

예보

예보는 3 시간 11분 전, 20:00시(UTC)에 발표되었습니다.
예보 대상 시간: 23일 21시부터 24일 21시까지 (UTC)
6kt
시정 10km 이상
고도 2000ft 상공 구름 많음
일시적
23일 21시부터 23일 24시까지 (UTC)
북서6kt, 순간 최대 풍속 16kt
일시적
24일 00시부터 24일 03시까지 (UTC)
북서6kt
시정: 2100m
고도 1100ft 상공 구름 보통
박무
일시적
24일 03시부터 24일 12시까지 (UTC)
북북서6kt, 순간 최대 풍속 16kt
시정: 3100m
고도 1500ft 상공 구름 보통, 적란운.
약한소나기, 박무
일시적
24일 12시부터 24일 21시까지 (UTC)
북북서6kt, 순간 최대 풍속 21kt

TAF: ULAA 232000Z 2321/2421 27003MPS 9999 BKN020 TEMPO 2321/2324 31003G08MPS TEMPO 2400/2403 31003MPS 2100 BR SCT011 TEMPO 2403/2412 33003G08MPS 3100 -SHRA BR SCT015CB TEMPO 2412/2421 33003G11MPS

4,000개 이상의 공항 관측 자료 및 예보 (METAR 및 TAF 보고).

지도상에서 검색 가능한 기상관측소가 노란 점과 빨간 점으로 표시되어 있습니다.

기상관측소 명을 보려면 표시 위로 마우스를 이동하세요.

날씨 관측과 예보를 보려면 클릭하세요.

지도 변경 : 확대하려면 엑스 표시가 있는 녹색 버튼, 축소하려면 빼기 표시가 있는 녹색 버튼, 다음 페이지의 지도를 보려면 녹색 화살표를 클릭하세요.


METAR-TAF: